KBAM/BAM METAR and TAF weather

Enter ICAO airport designator
Station Type Date Time Source
KBAM METAR 2020/11/25 22:35 UTC NOAA

KBAM 252235Z AUTO 33015G20KT 10SM SCT047 BKN065 BKN075 05/M05 A3009 RMK AO1


Station Type Date Time Source
KBAM Decoded METAR 2020/11/25 22:35 UTC NOAA

Station name not available
Nov 25, 2020 - 05:35 PM EST / 2020.11.25 2235 UTC
Wind: from the NNW (330 degrees) at 17 MPH (15 KT) gusting to 23 MPH (20 KT):0
Visibility: 10 mile(s):0
Sky conditions: mostly cloudy
Temperature: 41 F (5 C)
Dew Point: 23 F (-5 C)
Relative Humidity: 48%
Pressure (altimeter): 30.09 in. Hg (1018 hPa)
ob: KBAM 252235Z AUTO 33015G20KT 10SM SCT047 BKN065 BKN075 05/M05 A3009 RMK AO1
cycle: 22

Station Type Date Time Source
KBAM TAF 2020/11/25 18:22 UTC NOAA

TAF KBAM 251720Z 2518/2618 23010KT P6SM VCSH SCT035 BKN080
FM252000 29010G20KT P6SM -SHSN SCT030 OVC050
FM260000 34008KT P6SM BKN050
FM260800 VRB03KT P6SM BKN060
FM261200 VRB05KT P6SM SCT050 BKN120

Example: see airport list